Time;durP1;ratioP1;P1;durP2;ratioP2;P2;SDS_P1;SDS_P2;PMS_P1;PMS_P2;Temp;Humidity;BMP_temperature;BMP_pressure;BME280_temperature;BME280_humidity;BME280_pressure;Samples;Min_cycle;Max_cycle;Signal;HPM_P1;HPM_P2
2022/11/20 00:01:20;;;;;;;8.52;4.53;;;;;;;4.05;100.00;96797.59;5037522;28;20071;-59
2022/11/20 00:03:47;;;;;;;8.60;5.13;;;;;;;4.10;100.00;96784.38;5045257;28;20086;-58
2022/11/20 00:06:16;;;;;;;6.78;3.50;;;;;;;4.22;100.00;96784.44;5045155;28;20044;-58
2022/11/20 00:08:44;;;;;;;6.00;3.75;;;;;;;4.34;100.00;96787.16;5033983;28;20068;-57
2022/11/20 00:11:15;;;;;;;6.97;2.92;;;;;;;4.37;100.00;96789.38;5032930;28;20044;-58
2022/11/20 00:13:47;;;;;;;6.78;3.25;;;;;;;4.31;100.00;96774.19;5037389;28;20041;-58
2022/11/20 00:16:16;;;;;;;7.18;3.20;;;;;;;4.35;100.00;96780.75;5032896;28;20051;-57
2022/11/20 00:18:43;;;;;;;5.75;3.15;;;;;;;4.28;100.00;96783.50;5045577;28;20044;-58
2022/11/20 00:21:29;;;;;;;6.25;2.97;;;;;;;4.36;100.00;96785.09;5051107;28;20059;-58
2022/11/20 00:23:57;;;;;;;7.78;2.95;;;;;;;4.38;100.00;96782.16;5057357;28;20065;-57
2022/11/20 00:26:26;;;;;;;5.57;2.90;;;;;;;4.49;100.00;96785.94;5044819;28;20527;-59
2022/11/20 00:28:55;;;;;;;6.65;2.60;;;;;;;4.64;100.00;96785.53;5049208;28;20132;-57
2022/11/20 00:31:21;;;;;;;5.40;2.80;;;;;;;4.53;100.00;96785.25;5049141;28;20075;-58
2022/11/20 00:33:48;;;;;;;5.00;2.60;;;;;;;4.59;100.00;96777.34;5048479;28;20516;-57
2022/11/20 00:36:17;;;;;;;4.78;2.20;;;;;;;4.73;100.00;96784.16;5049388;28;20496;-59
2022/11/20 00:38:45;;;;;;;6.75;2.85;;;;;;;4.62;100.00;96777.72;5048814;28;20033;-59
2022/11/20 00:41:14;;;;;;;3.78;1.80;;;;;;;4.61;100.00;96778.75;5049621;28;20103;-59
2022/11/20 00:43:41;;;;;;;6.43;2.67;;;;;;;4.65;100.00;96774.56;5041185;28;20060;-59
2022/11/20 00:46:14;;;;;;;4.32;2.38;;;;;;;4.47;100.00;96774.63;5041260;28;20087;-59
2022/11/20 00:48:41;;;;;;;5.03;2.50;;;;;;;4.49;100.00;96783.28;5039905;28;20457;-59
2022/11/20 00:51:09;;;;;;;4.78;2.53;;;;;;;4.55;100.00;96782.34;5041306;28;20063;-57
2022/11/20 00:53:36;;;;;;;5.57;2.10;;;;;;;4.61;100.00;96781.44;5048386;28;20041;-59
2022/11/20 00:56:05;;;;;;;5.45;2.30;;;;;;;4.58;100.00;96783.75;5044096;28;20523;-57
2022/11/20 00:58:34;;;;;;;4.82;2.35;;;;;;;4.64;100.00;96796.25;5048529;28;20768;-59
2022/11/20 01:01:03;;;;;;;4.57;2.03;;;;;;;4.65;99.07;96787.97;5049020;28;20049;-56
2022/11/20 01:03:33;;;;;;;4.30;2.33;;;;;;;4.55;99.49;96787.72;5048478;28;20029;-59
2022/11/20 01:06:01;;;;;;;4.82;2.20;;;;;;;4.61;98.63;96799.41;5049048;28;20118;-56
2022/11/20 01:08:32;;;;;;;6.93;2.40;;;;;;;4.46;100.00;96795.25;5048562;28;20056;-56
2022/11/20 01:11:05;;;;;;;5.38;2.10;;;;;;;4.40;100.00;96788.94;5048459;28;20044;-57
2022/11/20 01:13:38;;;;;;;6.72;2.33;;;;;;;4.29;100.00;96790.53;5044890;28;20566;-58
2022/11/20 01:16:22;;;;;;;4.07;2.17;;;;;;;4.42;100.00;96797.56;5040415;28;20447;-59
2022/11/20 01:18:51;;;;;;;4.57;1.80;;;;;;;4.47;99.48;96796.91;5045678;28;20038;-58
2022/11/20 01:21:23;;;;;;;4.07;2.10;;;;;;;4.32;100.00;96794.63;5044820;28;20045;-57
2022/11/20 01:23:50;;;;;;;4.82;2.40;;;;;;;4.26;100.00;96790.16;5048242;28;20056;-56
2022/11/20 01:26:20;;;;;;;6.60;2.40;;;;;;;4.29;100.00;96795.06;5040887;28;20115;-57
2022/11/20 01:28:47;;;;;;;3.60;1.80;;;;;;;4.16;100.00;96806.75;5047342;28;20033;-59
2022/11/20 01:31:19;;;;;;;4.88;2.33;;;;;;;4.08;100.00;96809.72;5048466;28;20037;-59
2022/11/20 01:33:48;;;;;;;4.43;1.92;;;;;;;3.99;100.00;96806.56;5047589;28;20053;-59
2022/11/20 01:36:15;;;;;;;3.80;1.80;;;;;;;3.74;100.00;96802.91;5047641;28;20077;-59
2022/11/20 01:38:42;;;;;;;4.55;2.25;;;;;;;3.57;100.00;96804.53;5047910;28;20451;-59
2022/11/20 01:43:20;;;;;;;3.75;1.92;;;;;;;3.25;100.00;96803.53;5047780;28;20045;-58
2022/11/20 01:43:58;;;;;;;4.20;2.00;;;;;;;3.06;100.00;96800.00;5035271;28;20432;-59
2022/11/20 01:46:25;;;;;;;4.65;2.13;;;;;;;2.96;100.00;96795.16;5044291;28;20076;-60
2022/11/20 01:48:58;;;;;;;4.65;2.35;;;;;;;2.94;100.00;96796.38;5048718;28;20488;-59
2022/11/20 01:51:49;;;;;;;5.03;2.33;;;;;;;3.06;100.00;96799.19;5045504;28;20295;-57
2022/11/20 01:54:21;;;;;;;4.15;2.20;;;;;;;3.07;100.00;96793.63;5038042;28;20045;-60
2022/11/20 01:56:48;;;;;;;;;;;;;;;3.22;100.00;96795.16;5034978;28;20761;-59
2022/11/20 01:59:18;;;;;;;5.18;2.42;;;;;;;3.31;100.00;96795.69;5047673;28;19978;-60
2022/11/20 02:01:46;;;;;;;5.13;2.20;;;;;;;3.37;100.00;96792.13;5047106;28;20074;-59
2022/11/20 02:04:13;;;;;;;5.00;2.20;;;;;;;3.20;100.00;96800.72;5045472;28;20049;-59
2022/11/20 02:06:43;;;;;;;5.88;2.67;;;;;;;2.97;100.00;96802.13;5036822;28;20060;-59
2022/11/20 02:09:11;;;;;;;5.28;2.60;;;;;;;2.92;100.00;96801.97;5046687;28;20056;-59
2022/11/20 02:11:38;;;;;;;5.13;2.10;;;;;;;2.81;100.00;96799.97;5046366;28;20095;-59
2022/11/20 02:14:04;;;;;;;4.78;2.25;;;;;;;2.75;100.00;96803.50;5054580;28;20124;-59
2022/11/20 02:16:38;;;;;;;6.05;3.38;;;;;;;2.76;100.00;96803.28;5055519;28;20132;-58
2022/11/20 02:19:13;;;;;;;5.28;2.90;;;;;;;2.81;100.00;96798.13;5042285;28;20037;-57
2022/11/20 02:21:49;;;;;;;6.63;2.80;;;;;;;2.83;100.00;96806.75;5038594;28;20461;-59
2022/11/20 02:24:18;;;;;;;5.63;2.50;;;;;;;2.86;100.00;96813.50;5047956;28;20528;-58
2022/11/20 02:26:59;;;;;;;5.10;2.50;;;;;;;2.86;100.00;96809.00;5036654;28;20071;-58
2022/11/20 02:29:32;;;;;;;5.07;2.45;;;;;;;2.94;100.00;96807.91;5047229;28;20125;-57
2022/11/20 02:32:01;;;;;;;5.50;2.60;;;;;;;3.02;100.00;96800.66;5046361;28;20072;-58
2022/11/20 02:34:28;;;;;;;6.72;2.70;;;;;;;3.08;100.00;96803.28;5047511;28;20045;-55
2022/11/20 02:36:57;;;;;;;5.50;2.92;;;;;;;3.21;100.00;96806.88;5045224;28;20079;-58
2022/11/20 02:39:27;;;;;;;4.22;2.38;;;;;;;3.30;100.00;96804.75;5045301;28;20041;-56
2022/11/20 02:41:55;;;;;;;6.38;2.05;;;;;;;3.50;100.00;96809.91;5033322;28;20048;-58
2022/11/20 02:44:22;;;;;;;3.55;1.88;;;;;;;3.66;100.00;96808.53;5045635;28;20724;-57
2022/11/20 02:46:48;;;;;;;3.22;1.75;;;;;;;3.80;100.00;96803.88;5037293;28;20095;-58
2022/11/20 02:49:16;;;;;;;3.92;2.03;;;;;;;3.92;100.00;96803.13;5039878;28;20037;-59
2022/11/20 02:51:42;;;;;;;3.55;2.03;;;;;;;3.85;100.00;96803.19;5030010;28;20104;-59
2022/11/20 02:54:09;;;;;;;4.88;2.10;;;;;;;3.61;100.00;96797.69;5046712;28;20496;-58
2022/11/20 02:56:38;;;;;;;3.90;2.03;;;;;;;3.73;100.00;96790.53;5031711;28;20547;-58
2022/11/20 02:59:04;;;;;;;4.60;2.20;;;;;;;3.70;100.00;96799.03;5046549;28;20041;-59
2022/11/20 03:01:31;;;;;;;3.28;1.63;;;;;;;3.70;100.00;96804.38;5030628;28;20049;-59
2022/11/20 03:03:58;;;;;;;3.85;2.17;;;;;;;3.57;100.00;96794.63;5047100;28;20041;-59
2022/11/20 03:06:25;;;;;;;3.67;1.83;;;;;;;3.72;100.00;96804.97;5029800;28;20049;-57
2022/11/20 03:08:51;;;;;;;3.22;1.95;;;;;;;3.72;100.00;96796.94;5046341;28;20043;-58
2022/11/20 03:11:18;;;;;;;5.45;2.22;;;;;;;3.57;100.00;96791.94;5045338;28;20045;-58
2022/11/20 03:13:44;;;;;;;3.50;1.83;;;;;;;3.58;100.00;96790.09;5047487;28;20060;-59
2022/11/20 03:16:20;;;;;;;4.18;2.00;;;;;;;3.63;100.00;96790.25;5034314;28;20148;-57
2022/11/20 03:18:47;;;;;;;3.67;1.73;;;;;;;3.67;100.00;96783.41;5041764;28;20495;-59
2022/11/20 03:21:15;;;;;;;4.75;2.05;;;;;;;3.71;100.00;96789.94;5042134;28;20562;-58
2022/11/20 03:23:42;;;;;;;6.43;2.25;;;;;;;3.84;100.00;96783.63;5046527;28;20047;-55
2022/11/20 03:26:16;;;;;;;4.47;1.88;;;;;;;3.64;100.00;96778.47;5032954;28;20045;-59
2022/11/20 03:28:47;;;;;;;5.07;1.95;;;;;;;3.58;100.00;96782.06;5041600;28;20124;-57
2022/11/20 03:31:16;;;;;;;4.57;2.17;;;;;;;3.50;100.00;96780.47;5045426;28;20049;-59
2022/11/20 03:33:43;;;;;;;8.10;2.00;;;;;;;3.43;100.00;96785.88;5046510;28;20037;-58
2022/11/20 03:36:13;;;;;;;5.72;2.30;;;;;;;3.48;100.00;96786.06;5045151;28;20041;-59
2022/11/20 03:38:40;;;;;;;5.20;2.58;;;;;;;3.31;100.00;96779.66;5046388;28;20483;-57
2022/11/20 03:41:13;;;;;;;4.40;2.38;;;;;;;3.32;100.00;96776.72;5044510;28;20053;-57
2022/11/20 03:43:40;;;;;;;4.65;2.63;;;;;;;3.02;100.00;96779.25;5061862;28;20076;-58
2022/11/20 03:46:07;;;;;;;5.80;2.58;;;;;;;2.98;100.00;96781.53;5055006;28;20124;-58
2022/11/20 03:48:33;;;;;;;6.47;2.35;;;;;;;2.80;100.00;96782.31;5044687;28;20124;-58
2022/11/20 03:51:26;;;;;;;6.70;3.55;;;;;;;2.85;100.00;96775.25;5025740;28;20041;-58
2022/11/20 03:53:55;;;;;;;5.57;2.35;;;;;;;3.02;100.00;96777.38;5042950;28;20677;-58
2022/11/20 03:56:25;;;;;;;6.15;2.72;;;;;;;3.15;100.00;96778.31;5037691;28;20049;-56
2022/11/20 03:58:51;;;;;;;5.05;2.42;;;;;;;3.24;100.00;96777.00;5045631;28;20115;-59
2022/11/20 04:01:21;;;;;;;5.40;2.65;;;;;;;3.29;100.00;96773.69;5044963;28;20079;-56
2022/11/20 04:03:48;;;;;;;5.07;2.42;;;;;;;3.10;100.00;96777.13;5045200;28;20479;-56
2022/11/20 04:06:20;;;;;;;6.25;2.90;;;;;;;3.01;100.00;96778.44;5045647;28;20423;-56
2022/11/20 04:08:47;;;;;;;6.85;2.75;;;;;;;2.99;100.00;96767.16;5045098;28;20413;-57
2022/11/20 04:11:20;;;;;;;4.40;2.78;;;;;;;2.94;100.00;96770.47;5044744;28;20045;-58
2022/11/20 04:13:50;;;;;;;5.18;3.00;;;;;;;2.90;100.00;96782.63;5052063;28;20043;-58
2022/11/20 04:16:17;;;;;;;8.55;3.25;;;;;;;2.92;100.00;96774.41;5045059;28;20099;-58
2022/11/20 04:18:44;;;;;;;5.78;3.15;;;;;;;2.95;100.00;96776.66;5042754;28;20699;-58
2022/11/20 04:21:11;;;;;;;5.15;3.00;;;;;;;3.01;100.00;96775.75;5031148;28;20049;-59
2022/11/20 04:23:38;;;;;;;5.75;3.20;;;;;;;3.05;100.00;96765.44;5039070;28;20049;-58
2022/11/20 04:26:07;;;;;;;6.63;3.17;;;;;;;3.11;100.00;96767.25;5035639;28;20049;-57
2022/11/20 04:28:34;;;;;;;5.70;3.30;;;;;;;3.14;100.00;96768.66;5038695;28;20426;-59
2022/11/20 04:31:15;;;;;;;4.40;2.72;;;;;;;3.17;100.00;96760.22;5044016;28;20412;-58
2022/11/20 04:33:42;;;;;;;5.47;2.90;;;;;;;3.25;100.00;96766.09;5045941;28;20075;-59
2022/11/20 04:36:13;;;;;;;7.03;3.28;;;;;;;3.28;100.00;96761.34;5044845;28;20045;-58
2022/11/20 04:38:40;;;;;;;5.85;3.20;;;;;;;3.35;100.00;96759.41;5045781;28;20072;-57
2022/11/20 04:41:13;;;;;;;5.40;2.83;;;;;;;3.37;100.00;96765.38;5043595;28;20484;-58
2022/11/20 04:43:39;;;;;;;4.70;2.88;;;;;;;3.37;100.00;96763.53;5057973;28;20059;-59
2022/11/20 04:46:06;;;;;;;9.48;3.45;;;;;;;3.43;100.00;96767.16;5045801;28;20045;-59
2022/11/20 04:48:34;;;;;;;5.75;3.13;;;;;;;3.51;100.00;96760.72;5037349;28;20091;-58
2022/11/20 04:51:03;;;;;;;6.35;3.40;;;;;;;3.55;100.00;96767.25;5025228;28;20053;-59
2022/11/20 04:53:30;;;;;;;5.10;3.20;;;;;;;3.59;100.00;96764.94;5035394;28;20102;-58
2022/11/20 04:56:01;;;;;;;6.45;3.10;;;;;;;3.62;100.00;96764.50;5035810;28;20327;-59
2022/11/20 04:58:28;;;;;;;5.43;2.90;;;;;;;3.68;100.00;96765.50;5034984;28;20060;-57
2022/11/20 05:01:11;;;;;;;5.43;2.80;;;;;;;3.71;100.00;96773.88;5037972;28;20096;-59
2022/11/20 05:03:39;;;;;;;6.57;2.78;;;;;;;3.81;100.00;96767.19;5036601;28;20102;-58
2022/11/20 05:06:09;;;;;;;6.03;2.70;;;;;;;3.88;100.00;96762.59;5043584;28;20519;-57
2022/11/20 05:08:36;;;;;;;4.22;2.42;;;;;;;3.95;100.00;96755.28;5032763;28;20564;-58
2022/11/20 05:11:08;;;;;;;4.32;2.20;;;;;;;4.04;100.00;96753.09;5039887;28;20459;-57
2022/11/20 05:13:35;;;;;;;4.53;2.13;;;;;;;4.08;100.00;96756.97;5051697;28;20053;-58
2022/11/20 05:16:23;;;;;;;6.30;2.40;;;;;;;4.12;100.00;96755.47;5048471;28;20048;-56
2022/11/20 05:18:51;;;;;;;5.15;2.10;;;;;;;4.20;100.00;96754.34;5044568;28;20049;-55
2022/11/20 05:21:18;;;;;;;5.68;2.00;;;;;;;4.24;100.00;96760.09;5031286;28;20045;-56
2022/11/20 05:23:45;;;;;;;3.92;1.92;;;;;;;4.38;100.00;96761.53;5039850;28;20068;-59
2022/11/20 05:26:21;;;;;;;4.55;2.08;;;;;;;4.48;100.00;96755.63;5037336;28;20125;-57
2022/11/20 05:28:48;;;;;;;4.70;2.05;;;;;;;4.47;100.00;96755.84;5039304;28;20071;-58
2022/11/20 05:31:18;;;;;;;3.58;1.52;;;;;;;4.60;100.00;96762.91;5046133;28;20053;-57
2022/11/20 05:33:52;;;;;;;3.17;1.73;;;;;;;4.70;100.00;96760.47;5046985;28;20045;-58
2022/11/20 05:36:19;;;;;;;2.53;1.52;;;;;;;4.73;100.00;96760.03;5049061;28;20053;-57
2022/11/20 05:38:45;;;;;;;3.65;1.50;;;;;;;4.71;100.00;96758.63;5048202;28;20155;-58
2022/11/20 05:41:18;;;;;;;2.85;1.60;;;;;;;4.71;100.00;96764.00;5047552;28;20103;-57
2022/11/20 05:43:46;;;;;;;5.18;2.03;;;;;;;4.62;100.00;96760.81;5051184;28;20128;-59
2022/11/20 05:46:14;;;;;;;3.38;1.85;;;;;;;4.57;100.00;96752.63;5048225;28;20120;-58
2022/11/20 05:48:43;;;;;;;3.65;1.58;;;;;;;4.64;100.00;96751.47;5048627;28;20040;-58
2022/11/20 05:51:12;;;;;;;4.95;1.80;;;;;;;4.75;100.00;96755.22;5034987;28;20049;-58
2022/11/20 05:53:40;;;;;;;3.28;1.85;;;;;;;4.63;100.00;96751.69;5037927;28;20045;-58
2022/11/20 05:56:16;;;;;;;8.77;2.28;;;;;;;4.43;100.00;96755.50;5037581;28;20420;-59
2022/11/20 05:58:43;;;;;;;4.35;2.40;;;;;;;4.34;100.00;96764.88;5041181;28;20481;-59
2022/11/20 06:01:15;;;;;;;5.15;2.53;;;;;;;4.35;100.00;96761.97;5030159;28;20072;-59
2022/11/20 06:03:45;;;;;;;6.03;2.33;;;;;;;4.33;100.00;96758.72;5047698;28;20033;-58
2022/11/20 06:06:13;;;;;;;4.63;2.30;;;;;;;4.38;100.00;96758.03;5046902;28;19924;-57
2022/11/20 06:08:40;;;;;;;2.95;1.55;;;;;;;4.42;100.00;96757.34;5048294;28;20043;-57
2022/11/20 06:11:09;;;;;;;3.85;1.90;;;;;;;4.54;100.00;96752.03;5046503;28;19982;-57
2022/11/20 06:13:36;;;;;;;3.75;1.60;;;;;;;4.54;100.00;96754.72;5055200;28;20367;-58
2022/11/20 06:16:08;;;;;;;3.85;1.60;;;;;;;4.60;100.00;96746.81;5051585;28;20041;-59
2022/11/20 06:18:35;;;;;;;3.60;1.50;;;;;;;4.60;100.00;96747.63;5045297;28;20047;-55
2022/11/20 06:21:05;;;;;;;3.20;1.50;;;;;;;4.55;100.00;96758.22;5042281;28;20053;-57
2022/11/20 06:23:32;;;;;;;3.75;1.63;;;;;;;4.55;100.00;96744.81;5038263;28;20350;-58
2022/11/20 06:26:07;;;;;;;2.28;1.38;;;;;;;4.58;100.00;96744.38;5035796;28;20136;-58
2022/11/20 06:28:34;;;;;;;3.65;1.60;;;;;;;4.66;100.00;96741.34;5048643;28;20045;-57
2022/11/20 06:31:01;;;;;;;2.92;1.42;;;;;;;4.71;100.00;96747.91;5053754;28;20059;-59
2022/11/20 06:33:28;;;;;;;3.08;1.48;;;;;;;4.79;99.69;96750.25;5043023;28;20114;-60
2022/11/20 06:36:01;;;;;;;3.92;1.35;;;;;;;4.78;99.19;96753.97;5045035;28;20107;-57
2022/11/20 06:38:35;;;;;;;3.15;1.48;;;;;;;4.58;100.00;96748.91;5041074;28;20056;-57
2022/11/20 06:41:03;;;;;;;2.53;1.40;;;;;;;4.65;100.00;96744.25;5044512;28;20041;-59
2022/11/20 06:43:30;;;;;;;3.13;1.40;;;;;;;4.63;100.00;96752.53;5044612;28;20041;-57
2022/11/20 06:45:58;;;;;;;3.50;1.77;;;;;;;4.72;99.89;96755.69;5033004;28;20464;-57
2022/11/20 06:48:28;;;;;;;4.28;1.60;;;;;;;4.68;99.94;96754.50;5045400;28;20107;-59
2022/11/20 06:50:55;;;;;;;4.18;1.50;;;;;;;4.78;99.35;96756.63;5027393;28;20107;-56
2022/11/20 06:53:23;;;;;;;3.13;1.50;;;;;;;4.80;99.29;96755.34;5038722;28;20284;-59
2022/11/20 06:55:51;;;;;;;2.60;1.40;;;;;;;4.80;99.31;96758.03;5040613;28;20041;-58
2022/11/20 06:58:18;;;;;;;3.10;1.27;;;;;;;4.75;99.78;96762.47;5039748;28;20111;-58
2022/11/20 07:00:44;;;;;;;3.50;1.58;;;;;;;4.76;100.00;96761.44;5033302;28;20044;-58
2022/11/20 07:03:11;;;;;;;2.08;1.10;;;;;;;4.79;100.00;96763.66;5043812;28;20101;-56
2022/11/20 07:05:38;;;;;;;4.05;1.33;;;;;;;4.80;100.00;96759.91;5052697;28;20048;-61
2022/11/20 07:08:05;;;;;;;4.23;1.77;;;;;;;4.77;100.00;96755.00;5048766;28;20132;-59
2022/11/20 07:10:32;;;;;;;2.80;1.30;;;;;;;4.84;99.65;96766.47;5041184;28;20285;-59
2022/11/20 07:12:59;;;;;;;3.42;1.02;;;;;;;4.93;98.61;96765.09;5032805;28;20080;-58
2022/11/20 07:15:26;;;;;;;1.70;0.90;;;;;;;4.99;98.78;96774.06;5044946;28;20692;-60
2022/11/20 07:17:52;;;;;;;;;;;;;;;5.12;97.76;96770.34;5038514;28;20284;-59
2022/11/20 07:20:19;;;;;;;2.30;1.20;;;;;;;5.12;97.99;96769.53;5041974;28;20096;-59
2022/11/20 07:22:45;;;;;;;;;;;;;;;5.17;97.25;96766.97;5050099;28;19929;-57
2022/11/20 07:25:12;;;;;;;;;;;;;;;5.21;97.30;96773.53;5044343;28;19931;-59
2022/11/20 07:27:38;;;;;;;2.30;1.30;;;;;;;5.12;98.27;96774.91;5043545;28;19929;-58
2022/11/20 07:30:05;;;;;;;2.17;1.13;;;;;;;5.13;98.45;96779.22;5035516;28;20054;-58
2022/11/20 07:32:32;;;;;;;4.55;1.50;;;;;;;5.14;98.34;96779.00;5051406;28;20044;-58
2022/11/20 07:34:58;;;;;;;2.65;1.23;;;;;;;5.14;98.35;96780.84;5050121;28;20069;-57
2022/11/20 07:37:25;;;;;;;2.45;1.38;;;;;;;5.06;98.85;96782.81;5042834;28;20052;-57
2022/11/20 07:39:51;;;;;;;4.88;1.50;;;;;;;5.16;98.49;96778.78;5043418;28;20572;-58
2022/11/20 07:42:18;;;;;;;3.42;1.50;;;;;;;5.14;99.10;96784.38;5042230;28;20127;-58
2022/11/20 07:44:44;;;;;;;6.93;1.58;;;;;;;5.08;99.81;96788.78;5057226;28;20064;-58
2022/11/20 07:47:11;;;;;;;3.30;1.25;;;;;;;4.90;100.00;96784.31;5051458;28;20479;-57
2022/11/20 07:49:37;;;;;;;;;;;;;;;4.98;100.00;96785.88;5057477;28;19951;-56
2022/11/20 07:52:03;;;;;;;;;;;;;;;5.03;100.00;96794.03;5048851;28;20011;-57
2022/11/20 07:54:30;;;;;;;;;;;;;;;5.05;100.00;96796.50;5045924;28;19921;-57
2022/11/20 07:56:57;;;;;;;;;;;;;;;5.04;100.00;96792.97;5043435;28;20028;-57
2022/11/20 07:59:23;;;;;;;;;;;;;;;5.02;100.00;96797.75;5027297;28;20335;-59
2022/11/20 08:01:50;;;;;;;;;;;;;;;5.04;100.00;96800.19;5026518;28;20328;-58
2022/11/20 08:04:16;;;;;;;;;;;;;;;4.98;100.00;96801.13;5032817;28;19927;-60
2022/11/20 08:06:42;;;;;;;;;;;;;;;5.04;100.00;96795.66;5044845;28;19924;-58
2022/11/20 08:09:09;;;;;;;;;;;;;;;5.00;100.00;96799.03;5046224;28;19947;-59
2022/11/20 08:14:20;;;;;;;;;;;;;;;4.96;100.00;96804.03;5060096;28;19966;-59
2022/11/20 08:16:48;;;;;;;;;;;;;;;5.04;98.78;96803.72;5049699;28;19947;-59
2022/11/20 08:19:16;;;;;;;1.15;0.70;;;;;;;5.07;98.61;96805.13;5046516;28;20075;-57
2022/11/20 08:21:43;;;;;;;2.05;0.80;;;;;;;5.18;97.78;96812.38;5025693;28;20452;-58
2022/11/20 08:24:10;;;;;;;1.60;0.70;;;;;;;5.05;98.34;96809.91;5029706;28;20480;-56
2022/11/20 08:26:38;;;;;;;2.33;0.73;;;;;;;5.00;98.88;96805.22;5045079;28;20110;-59
2022/11/20 08:29:05;;;;;;;2.55;1.10;;;;;;;5.02;98.83;96800.44;5044570;28;20041;-58
2022/11/20 08:31:32;;;;;;;1.35;0.80;;;;;;;5.04;99.54;96809.06;5036601;28;20065;-58
2022/11/20 08:33:59;;;;;;;1.15;0.73;;;;;;;5.19;99.71;96802.44;5027321;28;20335;-57
2022/11/20 08:36:25;;;;;;;;;;;;;;;5.21;99.28;96808.41;5026114;28;20463;-58
2022/11/20 08:38:55;;;;;;;;;;;;;;;5.24;99.54;96816.00;5039587;28;19930;-58
2022/11/20 08:41:28;;;;;;;;;;;;;;;5.19;99.95;96818.53;5045159;28;19921;-56
2022/11/20 08:43:59;;;;;;;;;;;;;;;5.06;100.00;96817.69;5027708;28;20400;-57
2022/11/20 08:46:26;;;;;;;;;;;;;;;5.10;100.00;96825.31;5046997;28;20002;-57
2022/11/20 08:48:53;;;;;;;;;;;;;;;5.06;100.00;96828.44;5050848;28;19982;-56
2022/11/20 08:51:20;;;;;;;;;;;;;;;5.01;100.00;96832.88;5048699;28;20372;-58
2022/11/20 08:53:48;;;;;;;;;;;;;;;4.96;100.00;96836.25;5049538;28;20384;-58
2022/11/20 08:56:14;;;;;;;;;;;;;;;4.98;100.00;96838.69;5031847;28;19924;-58
2022/11/20 08:58:41;;;;;;;;;;;;;;;4.99;100.00;96837.63;5029763;28;19925;-57
2022/11/20 09:01:28;;;;;;;;;;;;;;;4.97;100.00;96832.50;5029836;28;19967;-57
2022/11/20 09:03:56;;;;;;;;;;;;;;;5.06;100.00;96833.00;5031554;28;19933;-57
2022/11/20 09:06:22;;;;;;;;;;;;;;;5.02;100.00;96832.63;5048907;28;20010;-57
2022/11/20 09:08:55;;;;;;;;;;;;;;;5.01;100.00;96839.03;5049804;28;19925;-57
2022/11/20 09:11:21;;;;;;;1.35;0.85;;;;;;;4.98;100.00;96831.47;5044755;28;20020;-57
2022/11/20 09:13:48;;;;;;;2.67;0.75;;;;;;;5.08;100.00;96836.25;5057476;28;20043;-57
2022/11/20 09:16:14;;;;;;;1.27;0.70;;;;;;;5.05;100.00;96844.78;5050149;28;20087;-58
2022/11/20 09:18:41;;;;;;;2.45;0.80;;;;;;;5.05;100.00;96839.44;5049048;28;20051;-57
2022/11/20 09:21:11;;;;;;;;;;;;;;;5.04;100.00;96848.50;5041649;28;19974;-56
2022/11/20 09:23:38;;;;;;;;;;;;;;;5.10;100.00;96841.41;5028430;28;19956;-56
2022/11/20 09:26:05;;;;;;;;;;;;;;;5.14;100.00;96848.78;5046909;28;19920;-57
2022/11/20 09:28:32;;;;;;;;;;;;;;;5.15;100.00;96858.47;5037285;28;19967;-57
2022/11/20 09:30:59;;;;;;;;;;;;;;;5.10;100.00;96862.88;5046040;28;19925;-58
2022/11/20 09:33:25;;;;;;;;;;;;;;;5.10;100.00;96852.13;5048620;28;19924;-59
2022/11/20 09:35:51;;;;;;;;;;;;;;;5.10;100.00;96858.34;5048351;28;19927;-59
2022/11/20 09:38:18;;;;;;;;;;;;;;;5.05;100.00;96855.53;5049322;28;19929;-59
2022/11/20 09:40:49;;;;;;;;;;;;;;;5.16;100.00;96857.41;5047297;28;19931;-58
2022/11/20 09:43:19;;;;;;;;;;;;;;;5.16;100.00;96861.97;5048960;28;20531;-59
2022/11/20 09:45:55;;;;;;;;;;;;;;;5.11;100.00;96869.88;5047767;28;19929;-60
2022/11/20 09:48:29;;;;;;;;;;;;;;;5.19;100.00;96864.19;5049225;28;19940;-59
2022/11/20 09:51:10;;;;;;;4.10;1.90;;;;;;;5.31;100.00;96867.72;5042885;28;20027;-58
2022/11/20 09:53:48;;;;;;;4.25;1.88;;;;;;;5.47;100.00;96866.25;5045268;28;20045;-58
2022/11/20 09:56:16;;;;;;;5.18;2.40;;;;;;;5.44;100.00;96864.00;5047056;28;20094;-58
2022/11/20 09:58:54;;;;;;;;;;;;;;;5.49;100.00;96874.03;5045475;28;20049;-57
2022/11/20 10:01:23;;;;;;;;;;;;;;;5.42;100.00;96876.03;5037342;28;19972;-58
2022/11/20 10:03:58;;;;;;;;;;;;;;;5.32;100.00;96876.59;5058315;28;19932;-59
2022/11/20 10:06:32;;;;;;;;;;;;;;;5.30;100.00;96887.56;5045473;28;19947;-59
2022/11/20 10:09:05;;;;;;;;;;;;;;;5.21;100.00;96880.88;5043146;28;20565;-58
2022/11/20 10:11:31;;;;;;;;;;;;;;;4.97;100.00;96880.00;5044868;28;20019;-54
2022/11/20 10:14:16;;;;;;;;;;;;;;;4.82;100.00;96890.09;5051232;28;19931;-58
2022/11/20 10:16:48;;;;;;;;;;;;;;;4.73;100.00;96880.72;5046921;28;19924;-57
2022/11/20 10:19:22;;;;;;;;;;;;;;;4.70;100.00;96886.53;5052964;28;20568;-58
2022/11/20 10:21:59;;;;;;;;;;;;;;;4.69;100.00;96890.25;5044413;28;19925;-58
2022/11/20 10:24:28;;;;;;;;;;;;;;;4.55;100.00;96885.06;5046301;28;19937;-58
2022/11/20 10:27:06;;;;;;;;;;;;;;;4.46;100.00;96886.38;5058338;28;19931;-59
2022/11/20 10:29:33;;;;;;;;;;;;;;;4.40;100.00;96873.91;5032182;28;20466;-57
2022/11/20 10:32:02;;;;;;;;;;;;;;;4.41;100.00;96876.34;5049208;28;19986;-58
2022/11/20 10:34:32;;;;;;;;;;;;;;;4.50;100.00;96871.50;5052981;28;19920;-56
2022/11/20 10:37:03;;;;;;;;;;;;;;;4.66;100.00;96877.28;5059656;28;19990;-57
2022/11/20 10:39:33;;;;;;;;;;;;;;;4.79;100.00;96874.44;5045037;28;19970;-58
2022/11/20 10:42:00;;;;;;;;;;;;;;;4.93;100.00;96872.41;5031942;28;19952;-57
2022/11/20 10:47:14;;;;;;;;;;;;;;;4.98;100.00;96869.03;5053191;28;19928;-54
2022/11/20 10:49:41;;;;;;;;;;;;;;;5.07;100.00;96867.66;5041115;28;19967;-55
2022/11/20 10:52:16;;;;;;;;;;;;;;;5.16;100.00;96870.03;5044879;28;20458;-56
2022/11/20 10:54:43;;;;;;;;;;;;;;;5.21;100.00;96870.16;5047308;28;20468;-56
2022/11/20 10:57:12;;;;;;;;;;;;;;;5.24;100.00;96869.69;5044237;28;20455;-58
2022/11/20 10:59:50;;;;;;;;;;;;;;;5.24;100.00;96871.53;5042149;28;19972;-56
2022/11/20 11:02:21;;;;;;;;;;;;;;;5.15;100.00;96857.63;5043726;28;20027;-56
2022/11/20 11:04:49;;;;;;;;;;;;;;;5.28;100.00;96859.31;5062724;28;20187;-58
2022/11/20 11:07:16;;;;;;;;;;;;;;;5.31;100.00;96854.28;5047226;28;20011;-59
2022/11/20 11:09:50;;;;;;;;;;;;;;;5.30;100.00;96849.97;5051326;28;20018;-58
2022/11/20 11:12:16;;;;;;;;;;;;;;;5.27;100.00;96852.31;5044458;28;19925;-57
2022/11/20 11:14:47;;;;;;;;;;;;;;;5.25;100.00;96838.28;5056347;28;19924;-57
2022/11/20 11:17:27;;;;;;;;;;;;;;;5.30;100.00;96844.59;5039235;28;19920;-57
2022/11/20 11:19:57;;;;;;;;;;;;;;;5.40;100.00;96829.78;5033163;28;19924;-58
2022/11/20 11:22:24;;;;;;;;;;;;;;;5.49;100.00;96825.69;5043181;28;20422;-57
2022/11/20 11:24:51;;;;;;;;;;;;;;;5.52;100.00;96825.25;5044319;28;20087;-58
2022/11/20 11:27:18;;;;;;;;;;;;;;;5.51;100.00;96820.94;5044533;28;19924;-58
2022/11/20 11:29:45;;;;;;;;;;;;;;;5.62;100.00;96811.25;5041669;28;19924;-56
2022/11/20 11:32:13;;;;;;;;;;;;;;;5.77;100.00;96815.31;5052689;28;19933;-58
2022/11/20 11:34:40;;;;;;;;;;;;;;;5.86;100.00;96806.66;5044152;28;19954;-57
2022/11/20 11:37:17;;;;;;;;;;;;;;;6.04;100.00;96812.97;5033030;28;19956;-57
2022/11/20 11:39:45;;;;;;;;;;;;;;;6.11;100.00;96802.09;5062694;28;19924;-58
2022/11/20 11:42:20;;;;;;;;;;;;;;;6.13;98.39;96797.31;5052742;28;19950;-54
2022/11/20 11:45:06;;;;;;;;;;;;;;;6.17;97.46;96789.56;5043828;28;19931;-57
2022/11/20 11:47:35;;;;;;;;;;;;;;;6.26;96.80;96787.34;5033007;28;19921;-56
2022/11/20 11:50:08;;;;;;;;;;;;;;;6.29;96.58;96789.53;5034117;28;19925;-56
2022/11/20 11:52:40;;;;;;;;;;;;;;;6.33;96.18;96774.56;5044026;28;19947;-58
2022/11/20 11:55:10;;;;;;;;;;;;;;;6.36;94.88;96777.59;5035083;28;19963;-55
2022/11/20 11:57:37;;;;;;;;;;;;;;;6.38;94.38;96780.84;5046658;28;19967;-58
2022/11/20 12:00:06;;;;;;;;;;;;;;;6.39;93.29;96781.69;5036512;28;20458;-57
2022/11/20 12:02:40;;;;;;;;;;;;;;;6.43;91.83;96777.47;5032760;28;20157;-57
2022/11/20 12:05:16;;;;;;;;;;;;;;;6.45;92.77;96775.34;5033804;28;20312;-57
2022/11/20 12:07:45;;;;;;;;;;;;;;;6.44;88.98;96778.25;5043838;28;19925;-58
2022/11/20 12:10:16;;;;;;;;;;;;;;;6.48;87.82;96772.16;5036608;28;19924;-58
2022/11/20 12:12:45;;;;;;;;;;;;;;;6.60;89.04;96765.94;5057741;28;20013;-57